sensor_id;sensor_type;location;lat;lon;timestamp;temperature;humidity
44607;DHT22;30315;46.072;14.474;2023-05-10T00:00:28;15.10;58.90
44607;DHT22;30315;46.072;14.474;2023-05-10T00:02:55;15.00;59.10
44607;DHT22;30315;46.072;14.474;2023-05-10T00:05:22;15.00;59.30
44607;DHT22;30315;46.072;14.474;2023-05-10T00:07:49;14.90;59.20
44607;DHT22;30315;46.072;14.474;2023-05-10T00:10:17;14.90;59.30
44607;DHT22;30315;46.072;14.474;2023-05-10T00:12:44;14.90;59.20
44607;DHT22;30315;46.072;14.474;2023-05-10T00:15:11;14.90;59.30
44607;DHT22;30315;46.072;14.474;2023-05-10T00:17:38;14.80;59.30
44607;DHT22;30315;46.072;14.474;2023-05-10T00:20:06;14.80;59.50
44607;DHT22;30315;46.072;14.474;2023-05-10T00:22:33;14.80;59.30
44607;DHT22;30315;46.072;14.474;2023-05-10T00:25:00;14.70;59.20
44607;DHT22;30315;46.072;14.474;2023-05-10T00:27:27;14.70;59.20
44607;DHT22;30315;46.072;14.474;2023-05-10T00:29:54;14.60;59.30
44607;DHT22;30315;46.072;14.474;2023-05-10T00:32:21;14.60;59.50
44607;DHT22;30315;46.072;14.474;2023-05-10T00:34:48;14.60;59.70
44607;DHT22;30315;46.072;14.474;2023-05-10T00:37:15;14.60;59.70
44607;DHT22;30315;46.072;14.474;2023-05-10T00:39:42;14.60;59.80
44607;DHT22;30315;46.072;14.474;2023-05-10T00:42:10;14.50;59.70
44607;DHT22;30315;46.072;14.474;2023-05-10T00:44:37;14.50;59.60
44607;DHT22;30315;46.072;14.474;2023-05-10T00:47:05;14.50;59.50
44607;DHT22;30315;46.072;14.474;2023-05-10T00:49:32;14.50;59.70
44607;DHT22;30315;46.072;14.474;2023-05-10T00:51:59;14.40;59.80
44607;DHT22;30315;46.072;14.474;2023-05-10T00:54:26;14.40;60.00
44607;DHT22;30315;46.072;14.474;2023-05-10T00:56:53;14.40;60.10
44607;DHT22;30315;46.072;14.474;2023-05-10T00:59:20;14.30;60.20
44607;DHT22;30315;46.072;14.474;2023-05-10T01:01:48;14.30;60.20
44607;DHT22;30315;46.072;14.474;2023-05-10T01:04:16;14.40;60.40
44607;DHT22;30315;46.072;14.474;2023-05-10T01:06:43;14.30;60.50
44607;DHT22;30315;46.072;14.474;2023-05-10T01:09:10;14.30;60.60
44607;DHT22;30315;46.072;14.474;2023-05-10T01:11:39;14.30;60.90
44607;DHT22;30315;46.072;14.474;2023-05-10T01:14:07;14.20;61.00
44607;DHT22;30315;46.072;14.474;2023-05-10T01:16:38;14.20;61.00
44607;DHT22;30315;46.072;14.474;2023-05-10T01:19:16;14.20;61.10
44607;DHT22;30315;46.072;14.474;2023-05-10T01:33:46;14.10;60.80
44607;DHT22;30315;46.072;14.474;2023-05-10T01:39:17;14.00;61.20
44607;DHT22;30315;46.072;14.474;2023-05-10T01:41:57;14.00;61.40
44607;DHT22;30315;46.072;14.474;2023-05-10T01:44:40;14.00;61.60
44607;DHT22;30315;46.072;14.474;2023-05-10T01:47:17;14.00;61.70
44607;DHT22;30315;46.072;14.474;2023-05-10T01:49:52;13.90;61.30
44607;DHT22;30315;46.072;14.474;2023-05-10T01:52:25;13.90;62.20
44607;DHT22;30315;46.072;14.474;2023-05-10T01:55:01;13.90;61.60
44607;DHT22;30315;46.072;14.474;2023-05-10T01:57:33;13.90;61.50
44607;DHT22;30315;46.072;14.474;2023-05-10T02:00:04;13.90;61.50
44607;DHT22;30315;46.072;14.474;2023-05-10T02:02:41;13.80;61.40
44607;DHT22;30315;46.072;14.474;2023-05-10T02:05:12;13.80;61.10
44607;DHT22;30315;46.072;14.474;2023-05-10T02:07:41;13.70;61.00
44607;DHT22;30315;46.072;14.474;2023-05-10T02:10:10;13.70;61.30
44607;DHT22;30315;46.072;14.474;2023-05-10T02:12:41;13.70;61.50
44607;DHT22;30315;46.072;14.474;2023-05-10T02:15:11;13.60;61.30
44607;DHT22;30315;46.072;14.474;2023-05-10T02:17:40;13.60;61.60
44607;DHT22;30315;46.072;14.474;2023-05-10T02:22:58;13.60;61.70
44607;DHT22;30315;46.072;14.474;2023-05-10T02:25:25;13.60;61.80
44607;DHT22;30315;46.072;14.474;2023-05-10T02:27:55;13.60;61.90
44607;DHT22;30315;46.072;14.474;2023-05-10T02:30:23;13.60;61.90
44607;DHT22;30315;46.072;14.474;2023-05-10T02:32:51;13.60;61.90
44607;DHT22;30315;46.072;14.474;2023-05-10T02:35:19;13.60;61.90
44607;DHT22;30315;46.072;14.474;2023-05-10T02:37:47;13.60;62.10
44607;DHT22;30315;46.072;14.474;2023-05-10T02:40:15;13.60;61.90
44607;DHT22;30315;46.072;14.474;2023-05-10T02:42:45;13.50;62.10
44607;DHT22;30315;46.072;14.474;2023-05-10T02:45:19;13.50;62.20
44607;DHT22;30315;46.072;14.474;2023-05-10T02:47:47;13.50;62.20
44607;DHT22;30315;46.072;14.474;2023-05-10T02:50:14;13.50;62.30
44607;DHT22;30315;46.072;14.474;2023-05-10T02:52:46;13.40;62.30
44607;DHT22;30315;46.072;14.474;2023-05-10T02:55:15;13.50;62.60
44607;DHT22;30315;46.072;14.474;2023-05-10T02:57:51;13.50;62.70
44607;DHT22;30315;46.072;14.474;2023-05-10T03:00:18;13.40;62.80
44607;DHT22;30315;46.072;14.474;2023-05-10T03:02:45;13.40;63.00
44607;DHT22;30315;46.072;14.474;2023-05-10T03:05:13;13.50;63.00
44607;DHT22;30315;46.072;14.474;2023-05-10T03:07:40;13.50;62.90
44607;DHT22;30315;46.072;14.474;2023-05-10T03:10:07;13.50;63.10
44607;DHT22;30315;46.072;14.474;2023-05-10T03:17:56;13.50;63.00
44607;DHT22;30315;46.072;14.474;2023-05-10T03:20:36;13.50;63.00
44607;DHT22;30315;46.072;14.474;2023-05-10T03:25:47;13.60;63.10
44607;DHT22;30315;46.072;14.474;2023-05-10T03:28:16;13.50;63.10
44607;DHT22;30315;46.072;14.474;2023-05-10T03:30:45;13.50;63.30
44607;DHT22;30315;46.072;14.474;2023-05-10T03:33:13;13.50;63.40
44607;DHT22;30315;46.072;14.474;2023-05-10T03:35:44;13.60;63.60
44607;DHT22;30315;46.072;14.474;2023-05-10T03:38:13;13.60;63.70
44607;DHT22;30315;46.072;14.474;2023-05-10T03:40:40;13.60;63.70
44607;DHT22;30315;46.072;14.474;2023-05-10T03:43:07;13.60;63.90
44607;DHT22;30315;46.072;14.474;2023-05-10T03:45:35;13.60;64.00
44607;DHT22;30315;46.072;14.474;2023-05-10T03:48:02;13.60;64.10
44607;DHT22;30315;46.072;14.474;2023-05-10T03:50:29;13.60;63.90
44607;DHT22;30315;46.072;14.474;2023-05-10T03:52:56;13.60;63.70
44607;DHT22;30315;46.072;14.474;2023-05-10T03:55:24;13.60;63.80
44607;DHT22;30315;46.072;14.474;2023-05-10T03:57:51;13.60;63.70
44607;DHT22;30315;46.072;14.474;2023-05-10T04:00:21;13.60;63.40
44607;DHT22;30315;46.072;14.474;2023-05-10T04:02:51;13.60;63.90
44607;DHT22;30315;46.072;14.474;2023-05-10T04:05:19;13.50;63.20
44607;DHT22;30315;46.072;14.474;2023-05-10T04:07:46;13.50;63.30
44607;DHT22;30315;46.072;14.474;2023-05-10T04:10:16;13.50;63.60
44607;DHT22;30315;46.072;14.474;2023-05-10T04:12:43;13.50;63.50
44607;DHT22;30315;46.072;14.474;2023-05-10T04:15:10;13.50;63.80
44607;DHT22;30315;46.072;14.474;2023-05-10T04:17:37;13.50;63.90
44607;DHT22;30315;46.072;14.474;2023-05-10T04:20:05;13.50;63.90
44607;DHT22;30315;46.072;14.474;2023-05-10T04:22:32;13.50;64.00
44607;DHT22;30315;46.072;14.474;2023-05-10T04:24:59;13.60;64.40
44607;DHT22;30315;46.072;14.474;2023-05-10T04:27:26;13.60;64.50
44607;DHT22;30315;46.072;14.474;2023-05-10T04:29:53;13.60;64.30
44607;DHT22;30315;46.072;14.474;2023-05-10T04:32:20;13.60;64.30
44607;DHT22;30315;46.072;14.474;2023-05-10T04:34:47;13.60;64.20
44607;DHT22;30315;46.072;14.474;2023-05-10T04:37:14;13.70;64.10
44607;DHT22;30315;46.072;14.474;2023-05-10T04:39:41;13.70;64.00
44607;DHT22;30315;46.072;14.474;2023-05-10T04:42:09;13.70;64.20
44607;DHT22;30315;46.072;14.474;2023-05-10T04:44:36;13.80;64.30
44607;DHT22;30315;46.072;14.474;2023-05-10T04:47:03;13.80;64.30
44607;DHT22;30315;46.072;14.474;2023-05-10T04:49:30;13.80;64.20
44607;DHT22;30315;46.072;14.474;2023-05-10T04:51:57;13.80;64.30
44607;DHT22;30315;46.072;14.474;2023-05-10T04:54:24;13.80;64.10
44607;DHT22;30315;46.072;14.474;2023-05-10T04:56:51;13.90;64.40
44607;DHT22;30315;46.072;14.474;2023-05-10T04:59:18;13.80;64.50
44607;DHT22;30315;46.072;14.474;2023-05-10T05:01:45;13.90;64.40
44607;DHT22;30315;46.072;14.474;2023-05-10T05:04:12;14.00;64.10
44607;DHT22;30315;46.072;14.474;2023-05-10T05:06:39;14.00;64.40
44607;DHT22;30315;46.072;14.474;2023-05-10T05:09:06;14.00;64.50
44607;DHT22;30315;46.072;14.474;2023-05-10T05:11:33;14.00;64.30
44607;DHT22;30315;46.072;14.474;2023-05-10T05:14:00;14.10;64.50
44607;DHT22;30315;46.072;14.474;2023-05-10T05:16:27;14.10;64.40
44607;DHT22;30315;46.072;14.474;2023-05-10T05:18:54;14.20;64.40
44607;DHT22;30315;46.072;14.474;2023-05-10T05:21:21;14.20;64.30
44607;DHT22;30315;46.072;14.474;2023-05-10T05:23:49;14.30;64.20
44607;DHT22;30315;46.072;14.474;2023-05-10T05:26:16;14.30;64.20
44607;DHT22;30315;46.072;14.474;2023-05-10T05:28:43;14.30;63.80
44607;DHT22;30315;46.072;14.474;2023-05-10T05:31:10;14.30;63.60
44607;DHT22;30315;46.072;14.474;2023-05-10T05:33:37;14.30;63.70
44607;DHT22;30315;46.072;14.474;2023-05-10T05:36:05;14.30;63.80
44607;DHT22;30315;46.072;14.474;2023-05-10T05:38:33;14.40;64.10
44607;DHT22;30315;46.072;14.474;2023-05-10T05:41:00;14.40;64.10
44607;DHT22;30315;46.072;14.474;2023-05-10T05:43:27;14.40;64.00
44607;DHT22;30315;46.072;14.474;2023-05-10T05:45:54;14.40;64.30
44607;DHT22;30315;46.072;14.474;2023-05-10T05:48:22;14.50;64.90
44607;DHT22;30315;46.072;14.474;2023-05-10T05:50:49;14.50;64.20
44607;DHT22;30315;46.072;14.474;2023-05-10T05:53:16;14.60;64.30
44607;DHT22;30315;46.072;14.474;2023-05-10T05:55:52;14.60;64.50
44607;DHT22;30315;46.072;14.474;2023-05-10T05:58:20;14.60;64.10
44607;DHT22;30315;46.072;14.474;2023-05-10T06:00:47;14.60;64.10
44607;DHT22;30315;46.072;14.474;2023-05-10T06:03:14;14.70;64.10
44607;DHT22;30315;46.072;14.474;2023-05-10T06:05:42;14.70;64.00
44607;DHT22;30315;46.072;14.474;2023-05-10T06:08:09;14.70;63.90
44607;DHT22;30315;46.072;14.474;2023-05-10T06:10:36;14.70;63.90
44607;DHT22;30315;46.072;14.474;2023-05-10T06:13:03;14.70;63.90
44607;DHT22;30315;46.072;14.474;2023-05-10T06:15:30;14.70;64.10
44607;DHT22;30315;46.072;14.474;2023-05-10T06:17:59;14.70;64.10
44607;DHT22;30315;46.072;14.474;2023-05-10T06:20:26;14.80;64.00
44607;DHT22;30315;46.072;14.474;2023-05-10T06:22:53;14.80;64.10
44607;DHT22;30315;46.072;14.474;2023-05-10T06:25:20;14.80;64.20
44607;DHT22;30315;46.072;14.474;2023-05-10T06:27:48;14.80;64.00
44607;DHT22;30315;46.072;14.474;2023-05-10T06:30:19;14.90;64.10
44607;DHT22;30315;46.072;14.474;2023-05-10T06:32:46;14.90;64.00
44607;DHT22;30315;46.072;14.474;2023-05-10T06:35:14;15.00;63.90
44607;DHT22;30315;46.072;14.474;2023-05-10T06:37:41;15.00;63.60
44607;DHT22;30315;46.072;14.474;2023-05-10T06:40:08;15.10;63.50
44607;DHT22;30315;46.072;14.474;2023-05-10T06:42:36;15.20;63.80
44607;DHT22;30315;46.072;14.474;2023-05-10T06:45:03;15.20;63.80
44607;DHT22;30315;46.072;14.474;2023-05-10T06:47:30;15.30;63.90
44607;DHT22;30315;46.072;14.474;2023-05-10T06:49:58;15.30;64.10
44607;DHT22;30315;46.072;14.474;2023-05-10T06:52:25;15.40;64.10
44607;DHT22;30315;46.072;14.474;2023-05-10T06:54:52;15.50;63.80
44607;DHT22;30315;46.072;14.474;2023-05-10T06:57:19;15.60;63.90
44607;DHT22;30315;46.072;14.474;2023-05-10T07:00:01;15.70;63.30
44607;DHT22;30315;46.072;14.474;2023-05-10T07:02:30;15.70;62.70
44607;DHT22;30315;46.072;14.474;2023-05-10T07:04:57;15.70;62.60
44607;DHT22;30315;46.072;14.474;2023-05-10T07:07:28;15.80;62.40
44607;DHT22;30315;46.072;14.474;2023-05-10T07:09:55;15.90;62.10
44607;DHT22;30315;46.072;14.474;2023-05-10T07:12:25;15.90;62.00
44607;DHT22;30315;46.072;14.474;2023-05-10T07:14:52;16.00;61.90
44607;DHT22;30315;46.072;14.474;2023-05-10T07:17:19;16.10;62.00
44607;DHT22;30315;46.072;14.474;2023-05-10T07:19:46;16.10;62.10
44607;DHT22;30315;46.072;14.474;2023-05-10T07:22:13;16.20;62.10
44607;DHT22;30315;46.072;14.474;2023-05-10T07:24:40;16.20;61.50
44607;DHT22;30315;46.072;14.474;2023-05-10T07:27:07;16.30;61.40
44607;DHT22;30315;46.072;14.474;2023-05-10T07:29:35;16.30;60.70
44607;DHT22;30315;46.072;14.474;2023-05-10T07:32:02;16.40;60.50
44607;DHT22;30315;46.072;14.474;2023-05-10T07:34:29;16.40;59.80
44607;DHT22;30315;46.072;14.474;2023-05-10T07:37:00;16.50;60.00
44607;DHT22;30315;46.072;14.474;2023-05-10T07:39:28;16.50;60.10
44607;DHT22;30315;46.072;14.474;2023-05-10T07:41:55;16.60;60.50
44607;DHT22;30315;46.072;14.474;2023-05-10T07:44:22;16.70;60.40
44607;DHT22;30315;46.072;14.474;2023-05-10T07:46:49;16.70;59.80
44607;DHT22;30315;46.072;14.474;2023-05-10T07:49:16;16.80;59.70
44607;DHT22;30315;46.072;14.474;2023-05-10T07:51:43;16.80;59.50
44607;DHT22;30315;46.072;14.474;2023-05-10T07:54:10;16.90;59.50
44607;DHT22;30315;46.072;14.474;2023-05-10T07:56:37;17.00;59.50
44607;DHT22;30315;46.072;14.474;2023-05-10T07:59:05;17.00;59.30
44607;DHT22;30315;46.072;14.474;2023-05-10T08:01:35;17.10;59.30
44607;DHT22;30315;46.072;14.474;2023-05-10T08:04:02;17.10;59.50
44607;DHT22;30315;46.072;14.474;2023-05-10T08:06:29;17.30;60.10
44607;DHT22;30315;46.072;14.474;2023-05-10T08:08:57;17.30;59.00
44607;DHT22;30315;46.072;14.474;2023-05-10T08:11:24;17.30;58.80
44607;DHT22;30315;46.072;14.474;2023-05-10T08:13:51;17.40;58.70
44607;DHT22;30315;46.072;14.474;2023-05-10T08:16:19;17.40;58.30
44607;DHT22;30315;46.072;14.474;2023-05-10T08:18:46;17.50;58.60
44607;DHT22;30315;46.072;14.474;2023-05-10T08:21:14;17.50;58.80
44607;DHT22;30315;46.072;14.474;2023-05-10T08:23:42;17.60;59.20
44607;DHT22;30315;46.072;14.474;2023-05-10T08:26:11;17.60;59.00
44607;DHT22;30315;46.072;14.474;2023-05-10T08:28:38;17.70;59.00
44607;DHT22;30315;46.072;14.474;2023-05-10T08:31:05;17.80;58.80
44607;DHT22;30315;46.072;14.474;2023-05-10T08:33:32;17.90;59.00
44607;DHT22;30315;46.072;14.474;2023-05-10T08:35:59;18.00;59.00
44607;DHT22;30315;46.072;14.474;2023-05-10T08:38:26;18.00;58.10
44607;DHT22;30315;46.072;14.474;2023-05-10T08:40:54;18.00;57.60
44607;DHT22;30315;46.072;14.474;2023-05-10T08:43:27;18.00;57.70
44607;DHT22;30315;46.072;14.474;2023-05-10T08:46:00;18.10;58.10
44607;DHT22;30315;46.072;14.474;2023-05-10T08:48:29;18.10;58.40
44607;DHT22;30315;46.072;14.474;2023-05-10T08:50:58;18.20;58.00
44607;DHT22;30315;46.072;14.474;2023-05-10T08:53:27;18.20;57.40
44607;DHT22;30315;46.072;14.474;2023-05-10T08:55:55;18.20;57.20
44607;DHT22;30315;46.072;14.474;2023-05-10T08:58:24;18.20;57.50
44607;DHT22;30315;46.072;14.474;2023-05-10T09:00:52;18.20;57.50
44607;DHT22;30315;46.072;14.474;2023-05-10T09:03:20;18.00;57.00
44607;DHT22;30315;46.072;14.474;2023-05-10T09:05:50;18.30;57.10
44607;DHT22;30315;46.072;14.474;2023-05-10T09:08:18;18.40;57.10
44607;DHT22;30315;46.072;14.474;2023-05-10T09:10:48;18.40;56.70
44607;DHT22;30315;46.072;14.474;2023-05-10T09:13:17;18.40;56.80
44607;DHT22;30315;46.072;14.474;2023-05-10T09:15:45;18.50;56.90
44607;DHT22;30315;46.072;14.474;2023-05-10T09:18:13;18.40;56.80
44607;DHT22;30315;46.072;14.474;2023-05-10T09:20:41;18.50;57.10
44607;DHT22;30315;46.072;14.474;2023-05-10T09:23:09;18.50;56.60
44607;DHT22;30315;46.072;14.474;2023-05-10T09:25:36;18.50;56.60
44607;DHT22;30315;46.072;14.474;2023-05-10T09:28:09;18.40;56.70
44607;DHT22;30315;46.072;14.474;2023-05-10T09:30:37;18.40;57.00
44607;DHT22;30315;46.072;14.474;2023-05-10T09:33:05;18.40;57.30
44607;DHT22;30315;46.072;14.474;2023-05-10T09:35:36;18.30;57.50
44607;DHT22;30315;46.072;14.474;2023-05-10T09:38:06;18.20;57.80
44607;DHT22;30315;46.072;14.474;2023-05-10T09:40:33;18.20;58.00
44607;DHT22;30315;46.072;14.474;2023-05-10T09:43:08;18.20;58.20
44607;DHT22;30315;46.072;14.474;2023-05-10T09:45:37;18.10;58.10
44607;DHT22;30315;46.072;14.474;2023-05-10T09:48:05;18.10;58.50
44607;DHT22;30315;46.072;14.474;2023-05-10T09:50:33;18.00;59.10
44607;DHT22;30315;46.072;14.474;2023-05-10T09:53:02;18.00;58.70
44607;DHT22;30315;46.072;14.474;2023-05-10T09:58:03;17.90;60.00
44607;DHT22;30315;46.072;14.474;2023-05-10T10:00:42;17.80;60.70
44607;DHT22;30315;46.072;14.474;2023-05-10T10:03:17;17.70;61.90
44607;DHT22;30315;46.072;14.474;2023-05-10T10:05:44;17.60;63.20
44607;DHT22;30315;46.072;14.474;2023-05-10T10:08:13;17.60;64.00
44607;DHT22;30315;46.072;14.474;2023-05-10T10:10:41;17.50;64.30
44607;DHT22;30315;46.072;14.474;2023-05-10T10:13:08;17.40;64.70
44607;DHT22;30315;46.072;14.474;2023-05-10T10:15:35;17.30;65.20
44607;DHT22;30315;46.072;14.474;2023-05-10T10:18:02;17.30;65.50
44607;DHT22;30315;46.072;14.474;2023-05-10T10:20:33;17.20;65.90
44607;DHT22;30315;46.072;14.474;2023-05-10T10:23:00;17.20;66.10
44607;DHT22;30315;46.072;14.474;2023-05-10T10:25:27;17.10;66.50
44607;DHT22;30315;46.072;14.474;2023-05-10T10:35:55;16.90;67.60
44607;DHT22;30315;46.072;14.474;2023-05-10T10:38:25;16.90;68.30
44607;DHT22;30315;46.072;14.474;2023-05-10T10:41:10;16.90;68.50
44607;DHT22;30315;46.072;14.474;2023-05-10T10:43:39;16.80;68.50
44607;DHT22;30315;46.072;14.474;2023-05-10T10:46:14;16.90;68.40
44607;DHT22;30315;46.072;14.474;2023-05-10T10:48:48;16.80;68.40
44607;DHT22;30315;46.072;14.474;2023-05-10T10:51:16;16.80;68.60
44607;DHT22;30315;46.072;14.474;2023-05-10T10:53:44;16.70;69.20
44607;DHT22;30315;46.072;14.474;2023-05-10T10:56:13;16.70;69.70
44607;DHT22;30315;46.072;14.474;2023-05-10T10:58:49;16.70;69.60
44607;DHT22;30315;46.072;14.474;2023-05-10T11:01:21;16.80;70.20
44607;DHT22;30315;46.072;14.474;2023-05-10T11:06:35;16.80;69.60
44607;DHT22;30315;46.072;14.474;2023-05-10T11:09:10;16.80;69.50
44607;DHT22;30315;46.072;14.474;2023-05-10T11:11:54;16.70;69.30
44607;DHT22;30315;46.072;14.474;2023-05-10T11:14:25;16.80;69.70
44607;DHT22;30315;46.072;14.474;2023-05-10T11:16:52;16.80;70.00
44607;DHT22;30315;46.072;14.474;2023-05-10T11:19:20;16.80;70.20
44607;DHT22;30315;46.072;14.474;2023-05-10T11:21:51;16.80;69.60
44607;DHT22;30315;46.072;14.474;2023-05-10T11:24:38;16.70;69.80
44607;DHT22;30315;46.072;14.474;2023-05-10T11:27:06;16.80;70.20
44607;DHT22;30315;46.072;14.474;2023-05-10T11:29:36;16.70;70.30
44607;DHT22;30315;46.072;14.474;2023-05-10T11:32:05;16.70;70.50
44607;DHT22;30315;46.072;14.474;2023-05-10T11:34:35;16.70;70.50
44607;DHT22;30315;46.072;14.474;2023-05-10T11:37:03;16.60;70.60
44607;DHT22;30315;46.072;14.474;2023-05-10T11:39:31;16.70;70.70
44607;DHT22;30315;46.072;14.474;2023-05-10T11:41:59;16.70;71.00
44607;DHT22;30315;46.072;14.474;2023-05-10T11:44:31;16.70;71.20
44607;DHT22;30315;46.072;14.474;2023-05-10T11:47:01;16.60;71.20
44607;DHT22;30315;46.072;14.474;2023-05-10T11:49:30;16.70;71.70
44607;DHT22;30315;46.072;14.474;2023-05-10T11:52:07;16.60;72.00
44607;DHT22;30315;46.072;14.474;2023-05-10T11:54:51;16.60;71.70
44607;DHT22;30315;46.072;14.474;2023-05-10T11:57:27;16.60;71.70
44607;DHT22;30315;46.072;14.474;2023-05-10T11:59:59;16.60;71.30
44607;DHT22;30315;46.072;14.474;2023-05-10T12:02:39;16.60;71.30
44607;DHT22;30315;46.072;14.474;2023-05-10T12:05:10;16.50;72.00
44607;DHT22;30315;46.072;14.474;2023-05-10T12:07:39;16.50;72.20
44607;DHT22;30315;46.072;14.474;2023-05-10T12:10:12;16.50;72.50
44607;DHT22;30315;46.072;14.474;2023-05-10T12:12:47;16.60;72.40
44607;DHT22;30315;46.072;14.474;2023-05-10T12:15:23;16.60;72.00
44607;DHT22;30315;46.072;14.474;2023-05-10T12:17:50;16.60;72.00
44607;DHT22;30315;46.072;14.474;2023-05-10T12:20:23;16.60;71.80
44607;DHT22;30315;46.072;14.474;2023-05-10T12:22:52;16.50;72.30
44607;DHT22;30315;46.072;14.474;2023-05-10T12:25:20;16.50;72.80
44607;DHT22;30315;46.072;14.474;2023-05-10T12:27:53;16.50;73.00
44607;DHT22;30315;46.072;14.474;2023-05-10T12:30:28;16.50;73.00
44607;DHT22;30315;46.072;14.474;2023-05-10T12:35:32;16.50;72.80
44607;DHT22;30315;46.072;14.474;2023-05-10T12:37:59;16.50;72.90
44607;DHT22;30315;46.072;14.474;2023-05-10T12:40:26;16.50;72.80
44607;DHT22;30315;46.072;14.474;2023-05-10T12:42:53;16.50;72.50
44607;DHT22;30315;46.072;14.474;2023-05-10T12:45:20;16.50;71.80
44607;DHT22;30315;46.072;14.474;2023-05-10T12:47:48;16.50;72.30
44607;DHT22;30315;46.072;14.474;2023-05-10T12:50:16;16.50;72.80
44607;DHT22;30315;46.072;14.474;2023-05-10T12:52:44;16.50;73.30
44607;DHT22;30315;46.072;14.474;2023-05-10T12:55:11;16.50;73.70
44607;DHT22;30315;46.072;14.474;2023-05-10T12:57:39;16.50;73.80
44607;DHT22;30315;46.072;14.474;2023-05-10T13:00:07;16.50;73.70
44607;DHT22;30315;46.072;14.474;2023-05-10T13:02:35;16.50;74.10
44607;DHT22;30315;46.072;14.474;2023-05-10T13:05:03;16.40;74.00
44607;DHT22;30315;46.072;14.474;2023-05-10T13:07:31;16.50;74.10
44607;DHT22;30315;46.072;14.474;2023-05-10T13:09:59;16.50;73.90
44607;DHT22;30315;46.072;14.474;2023-05-10T13:12:26;16.50;74.10
44607;DHT22;30315;46.072;14.474;2023-05-10T13:14:54;16.40;73.80
44607;DHT22;30315;46.072;14.474;2023-05-10T13:17:21;16.40;73.90
44607;DHT22;30315;46.072;14.474;2023-05-10T13:19:48;16.50;73.50
44607;DHT22;30315;46.072;14.474;2023-05-10T13:22:15;16.40;73.50
44607;DHT22;30315;46.072;14.474;2023-05-10T13:24:54;16.40;73.20
44607;DHT22;30315;46.072;14.474;2023-05-10T13:27:21;16.40;73.90
44607;DHT22;30315;46.072;14.474;2023-05-10T13:29:48;16.40;74.50
44607;DHT22;30315;46.072;14.474;2023-05-10T13:32:15;16.40;75.20
44607;DHT22;30315;46.072;14.474;2023-05-10T13:34:43;16.50;75.50
44607;DHT22;30315;46.072;14.474;2023-05-10T13:37:11;16.50;75.50
44607;DHT22;30315;46.072;14.474;2023-05-10T13:39:38;16.60;75.20
44607;DHT22;30315;46.072;14.474;2023-05-10T13:42:05;16.60;74.80
44607;DHT22;30315;46.072;14.474;2023-05-10T13:44:32;16.60;74.60
44607;DHT22;30315;46.072;14.474;2023-05-10T13:47:00;16.60;74.30
44607;DHT22;30315;46.072;14.474;2023-05-10T13:49:27;16.60;74.40
44607;DHT22;30315;46.072;14.474;2023-05-10T13:51:54;16.60;74.60
44607;DHT22;30315;46.072;14.474;2023-05-10T13:54:21;16.60;74.70
44607;DHT22;30315;46.072;14.474;2023-05-10T13:56:49;16.70;74.60
44607;DHT22;30315;46.072;14.474;2023-05-10T13:59:15;16.70;74.40
44607;DHT22;30315;46.072;14.474;2023-05-10T14:01:43;16.70;74.50
44607;DHT22;30315;46.072;14.474;2023-05-10T14:04:11;16.70;74.50
44607;DHT22;30315;46.072;14.474;2023-05-10T14:06:38;16.70;74.80
44607;DHT22;30315;46.072;14.474;2023-05-10T14:09:05;16.70;75.20
44607;DHT22;30315;46.072;14.474;2023-05-10T14:11:32;16.70;75.40
44607;DHT22;30315;46.072;14.474;2023-05-10T14:13:58;16.70;75.60
44607;DHT22;30315;46.072;14.474;2023-05-10T14:16:25;16.70;75.70
44607;DHT22;30315;46.072;14.474;2023-05-10T14:18:53;16.70;75.80
44607;DHT22;30315;46.072;14.474;2023-05-10T14:21:20;16.70;75.90
44607;DHT22;30315;46.072;14.474;2023-05-10T14:23:47;16.70;76.20
44607;DHT22;30315;46.072;14.474;2023-05-10T14:26:14;16.60;76.30
44607;DHT22;30315;46.072;14.474;2023-05-10T14:28:41;16.60;76.40
44607;DHT22;30315;46.072;14.474;2023-05-10T14:31:08;16.70;76.80
44607;DHT22;30315;46.072;14.474;2023-05-10T14:33:35;16.60;76.80
44607;DHT22;30315;46.072;14.474;2023-05-10T14:36:02;16.70;77.10
44607;DHT22;30315;46.072;14.474;2023-05-10T14:38:30;16.70;77.40
44607;DHT22;30315;46.072;14.474;2023-05-10T14:40:57;16.70;77.60
44607;DHT22;30315;46.072;14.474;2023-05-10T14:43:24;16.70;77.60
44607;DHT22;30315;46.072;14.474;2023-05-10T14:45:51;16.70;77.70
44607;DHT22;30315;46.072;14.474;2023-05-10T14:48:18;16.70;77.70
44607;DHT22;30315;46.072;14.474;2023-05-10T14:50:45;16.70;77.70
44607;DHT22;30315;46.072;14.474;2023-05-10T14:53:12;16.70;77.60
44607;DHT22;30315;46.072;14.474;2023-05-10T14:55:39;16.70;77.80
44607;DHT22;30315;46.072;14.474;2023-05-10T14:58:06;16.60;78.00
44607;DHT22;30315;46.072;14.474;2023-05-10T15:00:35;16.60;78.00
44607;DHT22;30315;46.072;14.474;2023-05-10T15:03:03;16.60;78.30
44607;DHT22;30315;46.072;14.474;2023-05-10T15:05:30;16.60;78.50
44607;DHT22;30315;46.072;14.474;2023-05-10T15:07:58;16.60;78.50
44607;DHT22;30315;46.072;14.474;2023-05-10T15:10:25;16.60;78.70
44607;DHT22;30315;46.072;14.474;2023-05-10T15:12:52;16.60;78.20
44607;DHT22;30315;46.072;14.474;2023-05-10T15:15:19;16.60;78.10
44607;DHT22;30315;46.072;14.474;2023-05-10T15:17:47;16.50;77.70
44607;DHT22;30315;46.072;14.474;2023-05-10T15:20:14;16.50;77.20
44607;DHT22;30315;46.072;14.474;2023-05-10T15:22:40;16.50;77.40
44607;DHT22;30315;46.072;14.474;2023-05-10T15:25:08;16.40;77.40
44607;DHT22;30315;46.072;14.474;2023-05-10T15:27:34;16.40;77.80
44607;DHT22;30315;46.072;14.474;2023-05-10T15:30:02;16.40;77.90
44607;DHT22;30315;46.072;14.474;2023-05-10T15:32:29;16.40;78.00
44607;DHT22;30315;46.072;14.474;2023-05-10T15:34:56;16.40;78.10
44607;DHT22;30315;46.072;14.474;2023-05-10T15:37:23;16.30;78.20
44607;DHT22;30315;46.072;14.474;2023-05-10T15:39:51;16.30;78.30
44607;DHT22;30315;46.072;14.474;2023-05-10T15:42:18;16.30;78.60
44607;DHT22;30315;46.072;14.474;2023-05-10T15:44:45;16.30;78.60
44607;DHT22;30315;46.072;14.474;2023-05-10T15:47:16;16.30;78.80
44607;DHT22;30315;46.072;14.474;2023-05-10T15:49:43;16.30;78.90
44607;DHT22;30315;46.072;14.474;2023-05-10T15:52:10;16.30;78.20
44607;DHT22;30315;46.072;14.474;2023-05-10T15:54:38;16.30;77.90
44607;DHT22;30315;46.072;14.474;2023-05-10T15:57:05;16.20;78.00
44607;DHT22;30315;46.072;14.474;2023-05-10T15:59:32;16.20;77.50
44607;DHT22;30315;46.072;14.474;2023-05-10T16:01:59;16.20;77.60
44607;DHT22;30315;46.072;14.474;2023-05-10T16:04:26;16.20;77.80